createdAt,value
2019-03-20T00:00:50.771Z,65.00
2019-03-20T00:03:23.757Z,64.70
2019-03-20T00:05:56.189Z,65.00
2019-03-20T00:08:30.327Z,64.80
2019-03-20T00:11:02.870Z,65.20
2019-03-20T00:13:35.090Z,65.40
2019-03-20T00:16:07.811Z,65.20
2019-03-20T00:18:40.249Z,65.10
2019-03-20T00:21:12.770Z,65.40
2019-03-20T00:23:47.109Z,65.30
2019-03-20T00:26:20.011Z,65.30
2019-03-20T00:28:53.269Z,65.40
2019-03-20T00:31:26.809Z,66.00
2019-03-20T00:33:59.189Z,66.30
2019-03-20T00:36:31.249Z,66.00
2019-03-20T00:39:04.829Z,65.70
2019-03-20T00:41:38.169Z,65.70
2019-03-20T00:44:10.488Z,65.60
2019-03-20T00:46:43.451Z,65.70
2019-03-20T00:49:16.129Z,65.70
2019-03-20T00:51:48.448Z,65.80
2019-03-20T00:54:20.737Z,65.90
2019-03-20T00:56:53.589Z,66.10
2019-03-20T00:59:26.729Z,66.10
2019-03-20T01:01:59.489Z,66.00
2019-03-20T01:04:32.088Z,65.50
2019-03-20T01:07:04.468Z,65.50
2019-03-20T01:09:37.292Z,65.70
2019-03-20T01:12:09.649Z,65.80
2019-03-20T01:14:42.249Z,65.70
2019-03-20T01:17:15.029Z,65.60
2019-03-20T01:19:47.331Z,65.60
2019-03-20T01:22:20.411Z,65.60
2019-03-20T01:24:53.892Z,65.60
2019-03-20T01:27:27.069Z,66.00
2019-03-20T01:29:59.969Z,65.80
2019-03-20T01:32:32.068Z,65.70
2019-03-20T01:35:04.889Z,65.80
2019-03-20T01:37:37.449Z,65.70
2019-03-20T01:40:09.988Z,65.70
2019-03-20T01:42:42.790Z,65.80
2019-03-20T01:45:15.602Z,65.80
2019-03-20T01:47:48.710Z,65.50
2019-03-20T01:50:21.571Z,65.40
2019-03-20T01:52:54.609Z,65.40
2019-03-20T01:55:27.908Z,65.40
2019-03-20T01:58:00.989Z,65.60
2019-03-20T02:00:33.869Z,65.50
2019-03-20T02:03:07.009Z,65.60
2019-03-20T02:05:39.429Z,65.60
2019-03-20T02:08:12.929Z,66.10
2019-03-20T02:10:46.114Z,66.10
2019-03-20T02:13:18.849Z,66.50
2019-03-20T02:15:51.713Z,65.80
2019-03-20T02:18:24.428Z,65.90
2019-03-20T02:20:57.207Z,65.60
2019-03-20T02:23:30.209Z,65.60
2019-03-20T02:26:02.791Z,65.90
2019-03-20T02:28:35.289Z,65.80
2019-03-20T02:31:07.751Z,65.90
2019-03-20T02:33:41.050Z,66.10
2019-03-20T02:36:13.590Z,66.20
2019-03-20T02:38:46.370Z,66.50
2019-03-20T02:41:20.236Z,66.20
2019-03-20T02:43:52.630Z,66.40
2019-03-20T02:46:25.758Z,66.40
2019-03-20T02:48:59.332Z,66.50
2019-03-20T02:51:32.630Z,66.00
2019-03-20T02:54:04.891Z,66.90
2019-03-20T02:56:37.569Z,66.80
2019-03-20T02:59:10.369Z,67.20
2019-03-20T03:01:42.811Z,67.40
2019-03-20T03:04:14.970Z,67.00
2019-03-20T03:06:48.610Z,67.20
2019-03-20T03:09:21.993Z,66.80
2019-03-20T03:11:55.310Z,66.80
2019-03-20T03:14:28.974Z,67.00
2019-03-20T03:17:02.249Z,67.10
2019-03-20T03:19:34.656Z,67.30
2019-03-20T03:22:07.185Z,67.40
2019-03-20T03:24:40.569Z,67.40
2019-03-20T03:27:13.629Z,67.90
2019-03-20T03:29:46.488Z,67.20
2019-03-20T03:32:19.010Z,67.00
2019-03-20T03:34:52.134Z,67.40
2019-03-20T03:37:25.431Z,67.50
2019-03-20T03:39:58.771Z,67.60
2019-03-20T03:42:31.330Z,67.70
2019-03-20T03:45:04.011Z,67.80
2019-03-20T03:47:37.050Z,67.90
2019-03-20T03:50:10.136Z,67.80
2019-03-20T03:52:42.610Z,67.60
2019-03-20T03:55:15.954Z,67.50
2019-03-20T03:57:49.290Z,67.60
2019-03-20T04:00:22.453Z,67.50
2019-03-20T04:02:55.354Z,67.90
2019-03-20T04:05:27.909Z,68.20
2019-03-20T04:08:00.549Z,68.30
2019-03-20T04:10:33.070Z,68.30
2019-03-20T04:13:06.892Z,68.50
2019-03-20T04:15:39.464Z,68.40
2019-03-20T04:18:11.937Z,68.10
2019-03-20T04:20:44.651Z,68.00
2019-03-20T04:23:17.750Z,68.10
2019-03-20T04:25:49.949Z,68.30
2019-03-20T04:28:22.491Z,68.20
2019-03-20T04:30:55.437Z,68.30
2019-03-20T04:33:28.553Z,68.20
2019-03-20T04:36:00.950Z,69.30
2019-03-20T04:38:33.398Z,69.70
2019-03-20T04:41:06.010Z,68.00
2019-03-20T04:43:38.470Z,68.20
2019-03-20T04:46:11.009Z,68.00
2019-03-20T04:48:43.272Z,67.80
2019-03-20T04:51:15.550Z,67.80
2019-03-20T04:53:48.229Z,67.90
2019-03-20T04:56:22.109Z,67.20
2019-03-20T04:58:55.289Z,66.80
2019-03-20T05:01:28.450Z,67.10
2019-03-20T05:04:01.249Z,67.30
2019-03-20T05:06:33.969Z,66.70
2019-03-20T05:09:07.769Z,67.30
2019-03-20T05:11:41.349Z,67.80
2019-03-20T05:14:13.810Z,67.50
2019-03-20T05:16:46.909Z,67.10
2019-03-20T05:19:19.789Z,67.20
2019-03-20T05:21:52.153Z,67.20
2019-03-20T05:24:24.869Z,67.20
2019-03-20T05:26:57.910Z,67.60
2019-03-20T05:29:30.809Z,67.80
2019-03-20T05:32:03.709Z,67.60
2019-03-20T05:34:36.369Z,67.40
2019-03-20T05:37:10.834Z,67.10
2019-03-20T05:39:43.409Z,67.40
2019-03-20T05:42:16.089Z,66.60
2019-03-20T05:44:49.410Z,66.10
2019-03-20T05:47:23.010Z,65.90
2019-03-20T05:49:55.650Z,66.00
2019-03-20T05:52:28.410Z,66.20
2019-03-20T05:55:01.210Z,66.90
2019-03-20T05:57:33.569Z,66.60
2019-03-20T06:00:06.609Z,66.50
2019-03-20T06:02:39.030Z,66.70
2019-03-20T06:05:11.510Z,66.60
2019-03-20T06:07:44.875Z,66.30
2019-03-20T06:10:17.649Z,65.90
2019-03-20T06:12:50.869Z,66.00
2019-03-20T06:15:24.614Z,65.90
2019-03-20T06:17:58.309Z,66.10
2019-03-20T06:20:33.640Z,66.20
2019-03-20T06:23:05.489Z,66.10
2019-03-20T06:25:38.053Z,66.00
2019-03-20T06:28:10.550Z,66.10
2019-03-20T06:30:43.271Z,66.50
2019-03-20T06:33:15.709Z,66.50
2019-03-20T06:35:48.271Z,67.30
2019-03-20T06:38:21.669Z,67.10
2019-03-20T06:40:55.072Z,67.40
2019-03-20T06:43:27.950Z,67.70
2019-03-20T06:46:02.109Z,67.80
2019-03-20T06:48:34.789Z,68.00
2019-03-20T06:51:09.709Z,67.80
2019-03-20T06:53:42.052Z,68.20
2019-03-20T06:56:15.010Z,68.60
2019-03-20T06:58:47.492Z,67.80
2019-03-20T07:01:31.649Z,68.10
2019-03-20T07:04:31.689Z,68.70
2019-03-20T07:07:11.949Z,68.40
2019-03-20T07:10:08.969Z,67.90
2019-03-20T07:12:41.069Z,67.80
2019-03-20T07:15:13.389Z,67.20
2019-03-20T07:17:46.550Z,66.60
2019-03-20T07:20:19.549Z,66.10
2019-03-20T07:22:52.609Z,65.30
2019-03-20T07:25:25.251Z,65.30
2019-03-20T07:27:58.092Z,64.50
2019-03-20T07:30:30.970Z,64.40
2019-03-20T07:33:04.112Z,64.00
2019-03-20T07:35:37.549Z,64.20
2019-03-20T07:38:10.609Z,63.60
2019-03-20T07:40:42.949Z,61.00
2019-03-20T07:43:15.771Z,62.40
2019-03-20T07:45:49.930Z,63.00
2019-03-20T07:48:22.727Z,61.50
2019-03-20T07:50:55.393Z,61.80
2019-03-20T07:53:27.771Z,62.60
2019-03-20T07:56:00.449Z,63.30
2019-03-20T07:58:34.289Z,62.50
2019-03-20T08:01:07.640Z,62.00
2019-03-20T08:03:39.670Z,60.70
2019-03-20T08:06:12.290Z,60.30
2019-03-20T08:08:43.669Z,59.40
2019-03-20T08:11:17.210Z,59.40
2019-03-20T08:13:49.729Z,59.20
2019-03-20T08:16:22.668Z,59.40
2019-03-20T08:18:55.729Z,59.30
2019-03-20T08:21:28.189Z,59.30
2019-03-20T08:24:01.609Z,59.10
2019-03-20T08:26:33.829Z,58.80
2019-03-20T08:29:06.049Z,58.90
2019-03-20T08:31:38.468Z,58.40
2019-03-20T08:34:10.869Z,57.90
2019-03-20T08:36:44.510Z,56.40
2019-03-20T08:39:17.588Z,56.60
2019-03-20T08:44:41.216Z,55.50
2019-03-20T08:47:29.880Z,55.60
2019-03-20T08:50:02.229Z,55.30
2019-03-20T08:52:34.931Z,55.20
2019-03-20T08:55:08.445Z,54.80
2019-03-20T08:57:51.984Z,54.90
2019-03-20T09:00:25.074Z,53.80
2019-03-20T09:02:57.521Z,54.10
2019-03-20T09:05:30.793Z,53.50
2019-03-20T09:08:04.614Z,54.50
2019-03-20T09:10:38.293Z,53.20
2019-03-20T09:13:10.614Z,52.70
2019-03-20T09:15:43.103Z,51.80
2019-03-20T09:18:16.115Z,52.90
2019-03-20T09:20:48.995Z,51.40
2019-03-20T09:23:21.953Z,51.40
2019-03-20T09:25:54.334Z,50.80
2019-03-20T09:28:27.216Z,51.20
2019-03-20T09:30:59.074Z,50.60
2019-03-20T09:33:32.176Z,50.20
2019-03-20T09:36:04.393Z,49.90
2019-03-20T09:38:43.257Z,50.00
2019-03-20T09:41:11.721Z,50.00
2019-03-20T09:43:45.253Z,48.70
2019-03-20T09:46:17.896Z,48.70
2019-03-20T09:48:50.995Z,49.00
2019-03-20T09:51:24.094Z,47.80
2019-03-20T09:53:57.556Z,47.70
2019-03-20T09:56:29.971Z,46.90
2019-03-20T09:59:02.837Z,46.00
2019-03-20T10:01:35.157Z,45.30
2019-03-20T10:04:08.757Z,46.40
2019-03-20T10:06:40.919Z,46.10
2019-03-20T10:09:13.579Z,46.10
2019-03-20T10:11:47.444Z,45.80
2019-03-20T10:14:19.805Z,45.90
2019-03-20T10:16:53.078Z,46.00
2019-03-20T10:19:25.704Z,44.90
2019-03-20T10:21:59.058Z,45.60
2019-03-20T10:24:31.343Z,46.20
2019-03-20T10:27:04.344Z,46.40
2019-03-20T10:29:37.545Z,46.70
2019-03-20T10:32:13.183Z,46.70
2019-03-20T10:34:45.823Z,46.80
2019-03-20T10:37:18.443Z,46.40
2019-03-20T10:39:50.844Z,46.20
2019-03-20T10:42:23.285Z,46.20
2019-03-20T10:44:55.443Z,45.10
2019-03-20T10:47:28.544Z,45.10
2019-03-20T10:50:01.603Z,42.70
2019-03-20T10:52:34.387Z,43.20
2019-03-20T10:55:07.942Z,43.10
2019-03-20T10:57:40.763Z,42.50
2019-03-20T11:00:16.823Z,41.70
2019-03-20T11:02:49.483Z,42.20
2019-03-20T11:05:21.472Z,41.70
2019-03-20T11:07:54.486Z,42.30
2019-03-20T11:10:28.044Z,41.50
2019-03-20T11:13:00.063Z,42.60
2019-03-20T11:15:32.975Z,42.90
2019-03-20T11:18:05.576Z,42.80
2019-03-20T11:20:37.402Z,42.60
2019-03-20T11:23:10.263Z,42.80
2019-03-20T11:25:43.764Z,43.90
2019-03-20T11:28:17.403Z,43.60
2019-03-20T11:30:50.683Z,44.40
2019-03-20T11:33:23.543Z,49.00
2019-03-20T11:35:56.223Z,49.30
2019-03-20T11:38:28.963Z,49.00
2019-03-20T11:41:02.264Z,49.50
2019-03-20T11:43:34.663Z,46.70
2019-03-20T11:46:07.285Z,45.20
2019-03-20T11:48:39.965Z,45.80
2019-03-20T11:51:13.311Z,44.40
2019-03-20T11:53:45.265Z,43.00
2019-03-20T11:56:18.463Z,42.30
2019-03-20T11:58:51.563Z,42.00
2019-03-20T12:01:23.763Z,39.80
2019-03-20T12:03:56.523Z,41.50
2019-03-20T12:06:29.563Z,42.50
2019-03-20T12:09:01.664Z,42.00
2019-03-20T12:11:45.428Z,42.70
2019-03-20T12:14:09.469Z,42.10
2019-03-20T12:16:42.643Z,42.70
2019-03-20T12:19:15.825Z,41.80
2019-03-20T12:21:48.603Z,41.50
2019-03-20T12:24:21.043Z,40.90
2019-03-20T12:26:54.363Z,42.50
2019-03-20T12:29:27.644Z,43.00
2019-03-20T12:32:00.944Z,42.60
2019-03-20T12:34:33.404Z,42.10
2019-03-20T12:37:05.664Z,41.10
2019-03-20T12:39:38.329Z,42.30
2019-03-20T12:42:11.382Z,42.70
2019-03-20T12:44:44.024Z,40.90
2019-03-20T12:47:16.663Z,40.20
2019-03-20T12:49:49.763Z,42.10
2019-03-20T12:52:21.683Z,40.50
2019-03-20T12:54:55.203Z,38.50
2019-03-20T12:57:29.107Z,37.40
2019-03-20T13:00:02.340Z,36.00
2019-03-20T13:02:35.563Z,35.50
2019-03-20T13:05:09.524Z,36.00
2019-03-20T13:07:42.204Z,35.30
2019-03-20T13:10:15.743Z,35.10
2019-03-20T13:12:48.563Z,34.10
2019-03-20T13:15:22.484Z,32.20
2019-03-20T13:17:55.584Z,33.60
2019-03-20T13:20:27.931Z,32.20
2019-03-20T13:23:11.363Z,32.10
2019-03-20T13:25:44.209Z,33.50
2019-03-20T13:28:17.124Z,33.40
2019-03-20T13:31:01.243Z,33.10
2019-03-20T13:33:34.006Z,33.10
2019-03-20T13:36:07.063Z,34.60
2019-03-20T13:38:40.027Z,37.20
2019-03-20T13:41:12.803Z,36.60
2019-03-20T13:43:45.749Z,35.50
2019-03-20T13:46:19.843Z,35.50
2019-03-20T13:48:53.687Z,31.80
2019-03-20T13:51:25.783Z,30.30
2019-03-20T13:53:58.603Z,30.60
2019-03-20T13:56:30.844Z,31.10
2019-03-20T13:59:04.203Z,30.50
2019-03-20T14:01:37.202Z,30.40
2019-03-20T14:04:09.924Z,33.60
2019-03-20T14:06:42.863Z,37.50
2019-03-20T14:09:16.883Z,36.80
2019-03-20T14:11:50.443Z,36.80
2019-03-20T14:14:23.984Z,35.80
2019-03-20T14:16:57.304Z,35.30
2019-03-20T14:19:30.683Z,35.30
2019-03-20T14:22:02.623Z,33.70
2019-03-20T14:24:36.051Z,33.30
2019-03-20T14:27:09.565Z,33.90
2019-03-20T14:29:42.583Z,33.50
2019-03-20T14:32:14.844Z,32.60
2019-03-20T14:34:48.304Z,32.50
2019-03-20T14:37:21.303Z,32.30
2019-03-20T14:39:53.605Z,32.80
2019-03-20T14:42:26.664Z,32.40
2019-03-20T14:45:00.327Z,32.40
2019-03-20T14:47:41.895Z,32.70
2019-03-20T14:50:06.400Z,31.70
2019-03-20T14:52:39.204Z,32.10
2019-03-20T14:55:13.341Z,31.90
2019-03-20T14:57:46.341Z,32.60
2019-03-20T15:00:24.360Z,32.20
2019-03-20T15:02:57.260Z,32.70
2019-03-20T15:05:30.142Z,32.30
2019-03-20T15:08:02.482Z,32.40
2019-03-20T15:10:45.507Z,32.80
2019-03-20T15:13:09.821Z,32.10
2019-03-20T15:15:51.762Z,32.20
2019-03-20T15:18:25.001Z,32.20
2019-03-20T15:20:58.961Z,31.80
2019-03-20T15:23:32.542Z,32.40
2019-03-20T15:26:05.081Z,32.70
2019-03-20T15:28:37.686Z,32.40
2019-03-20T15:31:10.322Z,32.50
2019-03-20T15:33:43.602Z,33.00
2019-03-20T15:36:15.661Z,32.80
2019-03-20T15:38:49.321Z,33.10
2019-03-20T15:41:22.041Z,32.60
2019-03-20T15:44:02.331Z,32.80
2019-03-20T15:46:30.082Z,32.50
2019-03-20T15:49:03.160Z,33.00
2019-03-20T15:51:35.642Z,33.00
2019-03-20T15:54:08.961Z,33.10
2019-03-20T15:56:42.581Z,32.70
2019-03-20T15:59:15.541Z,32.90
2019-03-20T16:01:48.401Z,32.70
2019-03-20T16:04:21.221Z,33.70
2019-03-20T16:06:53.680Z,32.90
2019-03-20T16:09:25.401Z,32.70
2019-03-20T16:11:57.961Z,32.80
2019-03-20T16:14:30.362Z,33.40
2019-03-20T16:17:03.530Z,34.00
2019-03-20T16:19:35.923Z,33.60
2019-03-20T16:22:09.026Z,33.60
2019-03-20T16:24:42.599Z,33.30
2019-03-20T16:27:15.643Z,33.30
2019-03-20T16:29:46.800Z,33.70
2019-03-20T16:32:19.840Z,33.90
2019-03-20T16:34:53.162Z,33.80
2019-03-20T16:37:26.211Z,33.50
2019-03-20T16:39:58.702Z,33.70
2019-03-20T16:42:31.181Z,33.50
2019-03-20T16:45:04.445Z,33.60
2019-03-20T16:47:36.821Z,34.20
2019-03-20T16:50:09.822Z,34.10
2019-03-20T16:52:42.701Z,34.50
2019-03-20T16:55:15.781Z,34.30
2019-03-20T16:57:48.365Z,34.70
2019-03-20T17:00:28.781Z,34.80
2019-03-20T17:03:01.946Z,34.30
2019-03-20T17:05:35.601Z,34.40
2019-03-20T17:08:09.181Z,34.60
2019-03-20T17:10:42.542Z,34.90
2019-03-20T17:13:14.882Z,34.20
2019-03-20T17:15:48.404Z,34.50
2019-03-20T17:18:21.041Z,34.90
2019-03-20T17:20:53.741Z,34.80
2019-03-20T17:23:26.061Z,34.80
2019-03-20T17:25:58.241Z,35.10
2019-03-20T17:28:31.000Z,35.00
2019-03-20T17:31:04.202Z,35.50
2019-03-20T17:33:37.221Z,34.90
2019-03-20T17:36:09.521Z,34.90
2019-03-20T17:38:42.481Z,34.90
2019-03-20T17:41:14.521Z,35.10
2019-03-20T17:43:48.061Z,35.20
2019-03-20T17:46:20.484Z,35.40
2019-03-20T17:48:53.284Z,35.50
2019-03-20T17:51:26.304Z,35.70
2019-03-20T17:53:59.588Z,35.80
2019-03-20T17:56:32.660Z,35.90
2019-03-20T17:59:05.821Z,36.10
2019-03-20T18:01:39.003Z,35.90
2019-03-20T18:04:12.542Z,36.20
2019-03-20T18:06:45.623Z,36.10
2019-03-20T18:09:16.868Z,36.10
2019-03-20T18:11:49.541Z,36.00
2019-03-20T18:14:22.321Z,36.10
2019-03-20T18:16:55.932Z,36.30
2019-03-20T18:19:28.160Z,35.90
2019-03-20T18:22:01.380Z,36.10
2019-03-20T18:24:33.951Z,36.00
2019-03-20T18:27:07.481Z,36.30
2019-03-20T18:29:39.901Z,36.40
2019-03-20T18:32:13.529Z,36.10
2019-03-20T18:34:46.544Z,36.10
2019-03-20T18:37:18.643Z,36.10
2019-03-20T18:39:51.663Z,36.20
2019-03-20T18:42:25.423Z,36.20
2019-03-20T18:44:58.565Z,36.20
2019-03-20T18:47:31.781Z,36.20
2019-03-20T18:50:05.861Z,36.30
2019-03-20T18:52:39.281Z,36.70
2019-03-20T18:55:13.345Z,36.70
2019-03-20T18:57:46.361Z,36.80
2019-03-20T19:00:23.242Z,36.90
2019-03-20T19:02:56.383Z,36.70
2019-03-20T19:05:34.622Z,36.60
2019-03-20T19:08:08.042Z,37.60
2019-03-20T19:10:40.341Z,37.60
2019-03-20T19:13:13.102Z,37.60
2019-03-20T19:15:45.492Z,37.50
2019-03-20T19:18:18.652Z,37.60
2019-03-20T19:20:51.687Z,37.60
2019-03-20T19:23:24.081Z,37.30
2019-03-20T19:25:57.687Z,37.60
2019-03-20T19:28:30.927Z,37.50
2019-03-20T19:31:03.540Z,37.30
2019-03-20T19:33:34.782Z,37.40
2019-03-20T19:36:08.081Z,37.60
2019-03-20T19:38:40.582Z,37.90
2019-03-20T19:41:13.581Z,38.00
2019-03-20T19:43:46.681Z,37.90
2019-03-20T19:46:19.161Z,38.00
2019-03-20T19:48:51.621Z,38.00
2019-03-20T19:51:24.621Z,38.00
2019-03-20T19:53:57.681Z,38.80
2019-03-20T19:56:29.901Z,38.30
2019-03-20T19:59:02.741Z,38.40
2019-03-20T20:01:35.790Z,38.40
2019-03-20T20:04:08.781Z,38.50
2019-03-20T20:06:41.102Z,38.60
2019-03-20T20:09:13.637Z,38.70
2019-03-20T20:11:46.803Z,38.80
2019-03-20T20:14:19.663Z,38.80
2019-03-20T20:16:51.681Z,38.90
2019-03-20T20:19:24.867Z,38.90
2019-03-20T20:21:58.521Z,39.00
2019-03-20T20:24:31.726Z,39.00
2019-03-20T20:27:04.761Z,38.90
2019-03-20T20:29:37.662Z,38.90
2019-03-20T20:32:10.402Z,39.00
2019-03-20T20:34:43.343Z,38.60
2019-03-20T20:37:15.582Z,39.20
2019-03-20T20:39:47.441Z,39.40
2019-03-20T20:42:20.741Z,39.50
2019-03-20T20:44:53.122Z,39.80
2019-03-20T20:47:26.103Z,39.50
2019-03-20T20:49:58.901Z,40.40
2019-03-20T20:52:31.841Z,40.60
2019-03-20T20:55:03.803Z,40.70
2019-03-20T20:57:36.622Z,40.60
2019-03-20T21:00:12.722Z,40.70
2019-03-20T21:02:45.261Z,40.90
2019-03-20T21:05:18.861Z,41.20
2019-03-20T21:07:52.747Z,41.40
2019-03-20T21:10:25.023Z,41.80
2019-03-20T21:12:58.043Z,41.90
2019-03-20T21:15:42.523Z,42.00
2019-03-20T21:18:58.821Z,42.30
2019-03-20T21:21:45.980Z,43.20
2019-03-20T21:24:25.744Z,43.10
2019-03-20T21:27:43.311Z,43.20
2019-03-20T21:30:47.463Z,43.40
2019-03-20T21:34:06.541Z,43.70
2019-03-20T21:37:30.141Z,44.00
2019-03-20T21:40:02.721Z,44.60
2019-03-20T21:43:19.801Z,44.70
2019-03-20T21:46:20.282Z,45.20
2019-03-20T21:48:53.241Z,46.30
2019-03-20T21:51:26.661Z,45.40
2019-03-20T21:54:42.542Z,45.70
2019-03-20T21:57:28.202Z,45.10
2019-03-20T22:00:37.861Z,45.30
2019-03-20T22:03:10.861Z,45.30
2019-03-20T22:06:21.184Z,45.50
2019-03-20T22:08:54.461Z,45.40
2019-03-20T22:12:14.981Z,45.70
2019-03-20T22:14:50.701Z,46.30
2019-03-20T22:18:05.251Z,46.20
2019-03-20T22:20:57.200Z,46.20
2019-03-20T22:24:07.681Z,46.00
2019-03-20T22:27:28.861Z,45.90
2019-03-20T22:30:01.801Z,45.80
2019-03-20T22:33:19.861Z,45.90
2019-03-20T22:36:18.282Z,46.00
2019-03-20T22:39:56.810Z,46.30
2019-03-20T22:42:41.487Z,46.50
2019-03-20T22:46:01.742Z,47.10
2019-03-20T22:49:03.481Z,47.30
2019-03-20T22:52:09.121Z,47.70
2019-03-20T22:55:27.241Z,48.10
2019-03-20T22:58:41.264Z,48.50
2019-03-20T23:01:15.482Z,48.70
2019-03-20T23:03:52.563Z,48.60
2019-03-20T23:06:24.782Z,48.70
2019-03-20T23:08:58.422Z,48.40
2019-03-20T23:11:31.161Z,48.30
2019-03-20T23:14:04.983Z,48.30
2019-03-20T23:16:38.061Z,48.00
2019-03-20T23:19:12.181Z,48.30
2019-03-20T23:21:46.413Z,48.50
2019-03-20T23:24:18.841Z,48.40
2019-03-20T23:26:52.702Z,48.40
2019-03-20T23:29:26.021Z,48.70
2019-03-20T23:31:58.605Z,48.90
2019-03-20T23:34:32.100Z,49.10
2019-03-20T23:37:05.205Z,49.40
2019-03-20T23:39:39.642Z,49.50
2019-03-20T23:42:13.322Z,49.50
2019-03-20T23:44:46.802Z,49.60
2019-03-20T23:47:22.061Z,49.60
2019-03-20T23:49:55.124Z,49.80
2019-03-20T23:52:28.021Z,49.80
2019-03-20T23:55:02.483Z,50.00
2019-03-20T23:57:35.760Z,49.80
